createdAt,value
2022-08-19T00:00:51.226Z,100386.00
2022-08-19T00:05:51.271Z,100388.00
2022-08-19T00:10:51.537Z,100390.00
2022-08-19T00:15:52.244Z,100392.00
2022-08-19T00:20:52.275Z,100394.00
2022-08-19T00:25:52.638Z,100390.00
2022-08-19T00:30:53.742Z,100390.00
2022-08-19T00:35:56.172Z,100390.00
2022-08-19T00:40:56.340Z,100396.00
2022-08-19T00:45:56.316Z,100394.00
2022-08-19T00:50:56.299Z,100394.00
2022-08-19T00:55:56.338Z,100388.00
2022-08-19T01:00:56.305Z,100388.00
2022-08-19T01:05:56.306Z,100390.00
2022-08-19T01:10:56.353Z,100390.00
2022-08-19T01:15:56.381Z,100394.00
2022-08-19T01:20:56.367Z,100396.00
2022-08-19T01:25:56.374Z,100390.00
2022-08-19T01:30:58.314Z,100388.00
2022-08-19T01:35:58.877Z,100388.00
2022-08-19T01:41:00.487Z,100384.00
2022-08-19T01:46:03.148Z,100384.00
2022-08-19T01:51:03.468Z,100386.00
2022-08-19T01:56:03.338Z,100382.00
2022-08-19T02:01:03.423Z,100372.00
2022-08-19T02:06:03.562Z,100370.00
2022-08-19T02:11:03.346Z,100372.00
2022-08-19T02:16:04.283Z,100372.00
2022-08-19T02:21:04.476Z,100380.00
2022-08-19T02:26:04.359Z,100382.00
2022-08-19T02:31:04.374Z,100384.00
2022-08-19T02:36:04.407Z,100384.00
2022-08-19T02:41:04.465Z,100388.00
2022-08-19T02:46:05.237Z,100396.00
2022-08-19T02:51:05.854Z,100396.00
2022-08-19T02:56:06.457Z,100396.00
2022-08-19T03:01:06.487Z,100402.00
2022-08-19T03:06:06.692Z,100406.00
2022-08-19T03:11:06.427Z,100402.00
2022-08-19T03:16:06.549Z,100400.00
2022-08-19T03:21:06.416Z,100396.00
2022-08-19T03:26:16.082Z,100394.00
2022-08-19T03:31:45.111Z,100394.00
2022-08-19T03:36:11.519Z,100396.00
2022-08-19T03:41:11.455Z,100404.00
2022-08-19T03:46:11.489Z,100410.00
2022-08-19T03:51:11.495Z,100411.00
2022-08-19T03:56:12.050Z,100413.00
2022-08-19T04:01:12.542Z,100419.00
2022-08-19T04:06:13.142Z,100417.00
2022-08-19T04:11:13.504Z,100417.00
2022-08-19T04:16:13.520Z,100421.00
2022-08-19T04:21:13.529Z,100419.00
2022-08-19T04:26:13.451Z,100419.00
2022-08-19T04:31:13.427Z,100425.00
2022-08-19T04:36:13.775Z,100425.00
2022-08-19T04:41:31.597Z,100427.00
2022-08-19T04:46:39.923Z,100431.00
2022-08-19T04:51:34.547Z,100441.00
2022-08-19T04:56:34.714Z,100441.00
2022-08-19T05:01:34.430Z,100451.00
2022-08-19T05:06:34.504Z,100457.00
2022-08-19T05:11:34.524Z,100462.00
2022-08-19T05:16:34.540Z,100464.00
2022-08-19T05:21:52.747Z,100466.00
2022-08-19T05:26:52.452Z,100476.00
2022-08-19T05:31:52.657Z,100480.00
2022-08-19T05:36:54.388Z,100484.00
2022-08-19T05:41:55.097Z,100482.00
2022-08-19T05:46:55.551Z,100486.00
2022-08-19T05:51:56.235Z,100484.00
2022-08-19T05:56:56.551Z,100480.00
2022-08-19T06:01:57.504Z,100484.00
2022-08-19T06:06:58.088Z,100486.00
2022-08-19T06:11:59.924Z,100488.00
2022-08-19T06:17:02.648Z,100494.00
2022-08-19T06:22:02.701Z,100492.00
2022-08-19T06:27:03.806Z,100488.00
2022-08-19T06:32:03.661Z,100482.00
2022-08-19T06:37:03.609Z,100480.00
2022-08-19T06:42:03.878Z,100476.00
2022-08-19T06:47:14.422Z,100478.00
2022-08-19T06:52:06.632Z,100476.00
2022-08-19T06:57:07.231Z,100480.00
2022-08-19T07:02:07.786Z,100482.00
2022-08-19T07:07:20.981Z,100486.00
2022-08-19T07:12:10.599Z,100490.00
2022-08-19T07:17:10.564Z,100490.00
2022-08-19T07:22:13.185Z,100496.00
2022-08-19T07:27:15.069Z,100504.00
2022-08-19T07:32:14.727Z,100507.00
2022-08-19T07:37:14.848Z,100513.00
2022-08-19T07:42:15.322Z,100521.00
2022-08-19T07:47:48.735Z,100525.00
2022-08-19T07:52:17.998Z,100531.00
2022-08-19T07:57:17.711Z,100543.00
2022-08-19T08:02:17.700Z,100545.00
2022-08-19T08:07:35.927Z,100549.00
2022-08-19T08:12:38.238Z,100553.00
2022-08-19T08:17:49.443Z,100557.00
2022-08-19T08:22:59.809Z,100559.00
2022-08-19T08:28:00.686Z,100559.00
2022-08-19T08:33:00.735Z,100563.00
2022-08-19T08:38:04.293Z,100559.00
2022-08-19T08:43:05.561Z,100553.00
2022-08-19T08:48:07.766Z,100547.00
2022-08-19T08:53:09.701Z,100533.00
2022-08-19T08:58:09.739Z,100525.00
2022-08-19T09:03:09.647Z,100515.00
2022-08-19T09:08:15.192Z,100507.00
2022-08-19T09:13:16.649Z,100500.00
2022-08-19T09:18:19.487Z,100496.00
2022-08-19T09:23:26.820Z,100494.00
2022-08-19T09:28:27.236Z,100490.00
2022-08-19T09:33:24.708Z,100488.00
2022-08-19T09:38:24.919Z,100488.00
2022-08-19T09:43:33.664Z,100488.00
2022-08-19T09:48:28.832Z,100490.00
2022-08-19T09:53:29.478Z,100488.00
2022-08-19T09:58:31.767Z,100488.00
2022-08-19T10:03:31.783Z,100486.00
2022-08-19T10:08:31.710Z,100484.00
2022-08-19T10:13:32.440Z,100484.00
2022-08-19T10:18:34.686Z,100484.00
2022-08-19T10:23:35.576Z,100474.00
2022-08-19T10:28:37.679Z,100466.00
2022-08-19T10:33:53.526Z,100462.00
2022-08-19T10:38:50.335Z,100464.00
2022-08-19T10:43:46.150Z,100464.00
2022-08-19T10:48:45.817Z,100464.00
2022-08-19T10:53:45.819Z,100466.00
2022-08-19T10:58:45.827Z,100458.00
2022-08-19T11:03:45.979Z,100460.00
2022-08-19T11:08:46.145Z,100458.00
2022-08-19T11:13:46.398Z,100457.00
2022-08-19T11:18:47.299Z,100455.00
2022-08-19T11:23:47.891Z,100455.00
2022-08-19T11:28:47.852Z,100455.00
2022-08-19T11:33:50.073Z,100455.00
2022-08-19T11:38:50.917Z,100449.00
2022-08-19T11:43:51.032Z,100443.00
2022-08-19T11:48:51.192Z,100441.00
2022-08-19T11:53:51.342Z,100439.00
2022-08-19T11:58:52.671Z,100437.00
2022-08-19T12:03:52.949Z,100435.00
2022-08-19T12:08:52.836Z,100439.00
2022-08-19T12:13:52.814Z,100433.00
2022-08-19T12:18:52.830Z,100431.00
2022-08-19T12:23:55.845Z,100431.00
2022-08-19T12:28:55.849Z,100431.00
2022-08-19T12:33:55.887Z,100427.00
2022-08-19T12:38:55.853Z,100425.00
2022-08-19T12:43:55.970Z,100427.00
2022-08-19T12:48:56.126Z,100427.00
2022-08-19T12:53:56.006Z,100425.00
2022-08-19T12:58:56.374Z,100423.00
2022-08-19T13:03:56.861Z,100417.00
2022-08-19T13:08:59.666Z,100413.00
2022-08-19T13:13:58.949Z,100411.00
2022-08-19T13:18:58.990Z,100406.00
2022-08-19T13:23:59.140Z,100404.00
2022-08-19T13:29:24.512Z,100400.00
2022-08-19T13:34:25.012Z,100398.00
2022-08-19T13:39:28.003Z,100392.00
2022-08-19T13:44:29.822Z,100386.00
2022-08-19T13:49:30.652Z,100380.00
2022-08-19T13:54:31.244Z,100376.00
2022-08-19T13:59:30.971Z,100376.00
2022-08-19T14:04:31.059Z,100372.00
2022-08-19T14:09:31.024Z,100364.00
2022-08-19T14:14:31.025Z,100366.00
2022-08-19T14:19:31.033Z,100364.00
2022-08-19T14:24:31.051Z,100363.00
2022-08-19T14:29:31.013Z,100368.00
2022-08-19T14:34:32.111Z,100368.00
2022-08-19T14:39:31.995Z,100372.00
2022-08-19T14:44:34.177Z,100376.00
2022-08-19T14:49:34.774Z,100382.00
2022-08-19T14:54:36.062Z,100384.00
2022-08-19T14:59:36.111Z,100384.00
2022-08-19T15:04:36.070Z,100386.00
2022-08-19T15:09:36.066Z,100390.00
2022-08-19T15:14:36.095Z,100390.00
2022-08-19T15:19:36.610Z,100392.00
2022-08-19T15:24:48.022Z,100394.00
2022-08-19T15:29:41.101Z,100396.00
2022-08-19T15:34:41.101Z,100398.00
2022-08-19T15:39:41.121Z,100404.00
2022-08-19T15:44:41.005Z,100411.00
2022-08-19T15:49:41.006Z,100417.00
2022-08-19T15:54:41.125Z,100421.00
2022-08-19T16:00:02.656Z,100421.00
2022-08-19T16:05:19.360Z,100423.00
2022-08-19T16:10:27.459Z,100421.00
2022-08-19T16:15:21.052Z,100421.00
2022-08-19T16:20:24.111Z,100425.00
2022-08-19T16:25:26.028Z,100431.00
2022-08-19T16:30:26.147Z,100439.00
2022-08-19T16:35:26.078Z,100445.00
2022-08-19T16:40:26.107Z,100449.00
2022-08-19T16:45:26.147Z,100451.00
2022-08-19T16:50:47.831Z,100451.00
2022-08-19T16:55:28.471Z,100451.00
2022-08-19T17:00:28.262Z,100449.00
2022-08-19T17:05:28.133Z,100447.00
2022-08-19T17:10:28.195Z,100447.00
2022-08-19T17:15:28.100Z,100443.00
2022-08-19T17:20:28.137Z,100443.00
2022-08-19T17:25:28.207Z,100439.00
2022-08-19T17:30:28.212Z,100439.00
2022-08-19T17:35:28.248Z,100437.00
2022-08-19T17:40:29.205Z,100437.00
2022-08-19T17:45:30.169Z,100437.00
2022-08-19T17:50:30.418Z,100439.00
2022-08-19T17:55:30.483Z,100437.00
2022-08-19T18:00:30.158Z,100439.00
2022-08-19T18:05:32.602Z,100439.00
2022-08-19T18:10:34.864Z,100443.00
2022-08-19T18:15:35.177Z,100447.00
2022-08-19T18:20:35.220Z,100451.00
2022-08-19T18:25:35.370Z,100453.00
2022-08-19T18:30:35.394Z,100458.00
2022-08-19T18:35:56.917Z,100462.00
2022-08-19T18:41:15.101Z,100468.00
2022-08-19T18:46:36.848Z,100468.00
2022-08-19T18:51:35.141Z,100472.00
2022-08-19T18:56:37.054Z,100472.00
2022-08-19T19:01:40.141Z,100470.00
2022-08-19T19:06:40.384Z,100470.00
2022-08-19T19:11:40.070Z,100474.00
2022-08-19T19:16:40.160Z,100478.00
2022-08-19T19:21:42.256Z,100484.00
2022-08-19T19:26:45.040Z,100492.00
2022-08-19T19:31:45.183Z,100494.00
2022-08-19T19:36:45.251Z,100504.00
2022-08-19T19:41:45.097Z,100509.00
2022-08-19T19:46:45.182Z,100513.00
2022-08-19T19:51:45.225Z,100517.00
2022-08-19T19:56:45.733Z,100517.00
2022-08-19T20:01:46.981Z,100523.00
2022-08-19T20:06:47.090Z,100527.00
2022-08-19T20:11:47.190Z,100531.00
2022-08-19T20:16:47.253Z,100535.00
2022-08-19T20:21:51.101Z,100547.00
2022-08-19T20:26:50.356Z,100555.00
2022-08-19T20:31:57.340Z,100559.00
2022-08-19T20:36:53.198Z,100567.00
2022-08-19T20:41:55.122Z,100573.00
2022-08-19T20:46:58.423Z,100575.00
2022-08-19T20:51:57.854Z,100581.00
2022-08-19T20:56:58.323Z,100585.00
2022-08-19T21:01:58.186Z,100587.00
2022-08-19T21:06:58.218Z,100587.00
2022-08-19T21:11:58.162Z,100587.00
2022-08-19T21:16:58.221Z,100587.00
2022-08-19T21:21:58.288Z,100592.00
2022-08-19T21:26:58.336Z,100592.00
2022-08-19T21:31:58.168Z,100594.00
2022-08-19T21:36:58.190Z,100600.00
2022-08-19T21:41:58.273Z,100598.00
2022-08-19T21:46:58.475Z,100596.00
2022-08-19T21:51:58.237Z,100598.00
2022-08-19T21:56:58.286Z,100598.00
2022-08-19T22:02:15.721Z,100602.00
2022-08-19T22:07:00.309Z,100602.00
2022-08-19T22:12:00.275Z,100602.00
2022-08-19T22:17:00.627Z,100606.00
2022-08-19T22:22:00.292Z,100604.00
2022-08-19T22:27:01.232Z,100604.00
2022-08-19T22:32:01.496Z,100604.00
2022-08-19T22:37:03.267Z,100604.00
2022-08-19T22:42:03.354Z,100608.00
2022-08-19T22:47:03.235Z,100610.00
2022-08-19T22:52:17.090Z,100612.00
2022-08-19T22:57:19.033Z,100616.00
2022-08-19T23:02:19.358Z,100614.00
2022-08-19T23:07:19.262Z,100612.00
2022-08-19T23:12:21.361Z,100610.00
2022-08-19T23:17:21.269Z,100610.00
2022-08-19T23:22:21.320Z,100612.00
2022-08-19T23:27:41.619Z,100610.00
2022-08-19T23:32:41.415Z,100608.00
2022-08-19T23:37:41.383Z,100606.00
2022-08-19T23:42:41.360Z,100610.00
2022-08-19T23:47:41.450Z,100610.00
2022-08-19T23:52:41.380Z,100612.00
2022-08-19T23:57:41.326Z,100614.00
